Terminal Aerodrome Forecast
Issued by NWS La Crosse, WI

Home | Current Version | Previous Version | Text Only | Print | Product List | Glossary On
Versions: 1 2 3 4 5 6 7 8 9 10 11 12 13 14 15 16 17 18 19 20 21 22 23 24 25 26 27 28 29 30
000
FTUS43 KARX 231720
TAFRST
TAF
KRST 231720Z 2318/2418 18012KT P6SM FEW035
     FM240000 17008KT P6SM BKN200
     FM240600 15008KT P6SM -SHRA BKN080
     FM241300 16012KT P6SM VCSH BKN060
     FM241600 17012G18KT P6SM VCSH BKN050=

USA.gov is the U.S. government's official web portal to all federal, state and local government web resources and services.